<?xml version="1.0" encoding="UTF-8" standalone="no" ?>
<gpx xmlns="http://www.topografix.com/GPX/1/1" xmlns:xsi="http://www.w3.org/2001/XMLSchema-instance" xsi:schemaLocation="http://www.topografix.com/GPX/1/1 http://www.topografix.com/GPX/1/1/gpx.xsd" version="1.1" creator="VisuGPX - https://www.visugpx.com">
  <metadata>
    <name>Nantes-Saint Nazaires Etape 1</name>
  </metadata>
  <trk>
    <name><![CDATA[13343421-Traversée Moderne - Etape 1]]></name>
    <trkseg>
      <trkpt lat="47.21584" lon="-1.55106">
        <ele>17</ele>
        <time>2021-07-21T14:06:34Z</time>
      </trkpt>
      <trkpt lat="47.21422" lon="-1.55034">
        <ele>10</ele>
        <time>2021-07-21T14:07:14Z</time>
      </trkpt>
      <trkpt lat="47.21294" lon="-1.55339">
        <ele>11</ele>
        <time>2021-07-21T14:08:10Z</time>
      </trkpt>
      <trkpt lat="47.21169" lon="-1.55646">
        <ele>9</ele>
        <time>2021-07-21T14:09:07Z</time>
      </trkpt>
      <trkpt lat="47.21183" lon="-1.55697">
        <ele>10</ele>
        <time>2021-07-21T14:09:16Z</time>
      </trkpt>
      <trkpt lat="47.21143" lon="-1.55862">
        <ele>8</ele>
        <time>2021-07-21T14:09:44Z</time>
      </trkpt>
      <trkpt lat="47.21149" lon="-1.55907">
        <ele>8</ele>
        <time>2021-07-21T14:09:51Z</time>
      </trkpt>
      <trkpt lat="47.21117" lon="-1.55927">
        <ele>8</ele>
        <time>2021-07-21T14:09:59Z</time>
      </trkpt>
      <trkpt lat="47.21077" lon="-1.55966">
        <ele>8</ele>
        <time>2021-07-21T14:10:10Z</time>
      </trkpt>
      <trkpt lat="47.21065" lon="-1.56015">
        <ele>8</ele>
        <time>2021-07-21T14:10:19Z</time>
      </trkpt>
      <trkpt lat="47.21043" lon="-1.56052">
        <ele>8</ele>
        <time>2021-07-21T14:10:26Z</time>
      </trkpt>
      <trkpt lat="47.21017" lon="-1.56112">
        <ele>8</ele>
        <time>2021-07-21T14:10:38Z</time>
      </trkpt>
      <trkpt lat="47.21008" lon="-1.56158">
        <ele>8</ele>
        <time>2021-07-21T14:10:45Z</time>
      </trkpt>
      <trkpt lat="47.20984" lon="-1.56169">
        <ele>7</ele>
        <time>2021-07-21T14:10:51Z</time>
      </trkpt>
      <trkpt lat="47.20986" lon="-1.56227">
        <ele>6</ele>
        <time>2021-07-21T14:11:00Z</time>
      </trkpt>
      <trkpt lat="47.20982" lon="-1.56363">
        <ele>9</ele>
        <time>2021-07-21T14:11:22Z</time>
      </trkpt>
      <trkpt lat="47.20941" lon="-1.56443">
        <ele>5</ele>
        <time>2021-07-21T14:11:38Z</time>
      </trkpt>
      <trkpt lat="47.20906" lon="-1.56577">
        <ele>5</ele>
        <time>2021-07-21T14:12:01Z</time>
      </trkpt>
      <trkpt lat="47.20903" lon="-1.56603">
        <ele>5</ele>
        <time>2021-07-21T14:12:05Z</time>
      </trkpt>
      <trkpt lat="47.20869" lon="-1.56728">
        <ele>3</ele>
        <time>2021-07-21T14:12:26Z</time>
      </trkpt>
      <trkpt lat="47.20746" lon="-1.57114">
        <ele>6</ele>
        <time>2021-07-21T14:13:34Z</time>
      </trkpt>
      <trkpt lat="47.20708" lon="-1.5717">
        <ele>5</ele>
        <time>2021-07-21T14:13:46Z</time>
      </trkpt>
      <trkpt lat="47.2068" lon="-1.57194">
        <ele>4</ele>
        <time>2021-07-21T14:13:54Z</time>
      </trkpt>
      <trkpt lat="47.20663" lon="-1.57217">
        <ele>4</ele>
        <time>2021-07-21T14:13:59Z</time>
      </trkpt>
      <trkpt lat="47.20651" lon="-1.57271">
        <ele>5</ele>
        <time>2021-07-21T14:14:08Z</time>
      </trkpt>
      <trkpt lat="47.2067" lon="-1.57277">
        <ele>6</ele>
        <time>2021-07-21T14:14:13Z</time>
      </trkpt>
      <trkpt lat="47.20681" lon="-1.57304">
        <ele>8</ele>
        <time>2021-07-21T14:14:18Z</time>
      </trkpt>
      <trkpt lat="47.20671" lon="-1.57318">
        <ele>8</ele>
        <time>2021-07-21T14:14:21Z</time>
      </trkpt>
      <trkpt lat="47.20653" lon="-1.57335">
        <ele>9</ele>
        <time>2021-07-21T14:14:26Z</time>
      </trkpt>
      <trkpt lat="47.20631" lon="-1.57366">
        <ele>11</ele>
        <time>2021-07-21T14:14:33Z</time>
      </trkpt>
      <trkpt lat="47.20613" lon="-1.57383">
        <ele>11</ele>
        <time>2021-07-21T14:14:38Z</time>
      </trkpt>
      <trkpt lat="47.20596" lon="-1.57404">
        <ele>12</ele>
        <time>2021-07-21T14:14:43Z</time>
      </trkpt>
      <trkpt lat="47.20575" lon="-1.5742">
        <ele>12</ele>
        <time>2021-07-21T14:14:49Z</time>
      </trkpt>
      <trkpt lat="47.20558" lon="-1.57442">
        <ele>10</ele>
        <time>2021-07-21T14:14:54Z</time>
      </trkpt>
      <trkpt lat="47.20542" lon="-1.57458">
        <ele>10</ele>
        <time>2021-07-21T14:14:59Z</time>
      </trkpt>
      <trkpt lat="47.20488" lon="-1.57496">
        <ele>10</ele>
        <time>2021-07-21T14:15:13Z</time>
      </trkpt>
      <trkpt lat="47.20458" lon="-1.57513">
        <ele>9</ele>
        <time>2021-07-21T14:15:20Z</time>
      </trkpt>
      <trkpt lat="47.20411" lon="-1.57523">
        <ele>9</ele>
        <time>2021-07-21T14:15:31Z</time>
      </trkpt>
      <trkpt lat="47.20374" lon="-1.57538">
        <ele>12</ele>
        <time>2021-07-21T14:15:40Z</time>
      </trkpt>
      <trkpt lat="47.20336" lon="-1.5756">
        <ele>17</ele>
        <time>2021-07-21T14:15:50Z</time>
      </trkpt>
      <trkpt lat="47.20294" lon="-1.57571">
        <ele>18</ele>
        <time>2021-07-21T14:16:00Z</time>
      </trkpt>
      <trkpt lat="47.20244" lon="-1.57609">
        <ele>22</ele>
        <time>2021-07-21T14:16:13Z</time>
      </trkpt>
      <trkpt lat="47.20185" lon="-1.57642">
        <ele>15</ele>
        <time>2021-07-21T14:16:28Z</time>
      </trkpt>
      <trkpt lat="47.20128" lon="-1.57711">
        <ele>15</ele>
        <time>2021-07-21T14:16:45Z</time>
      </trkpt>
      <trkpt lat="47.2009" lon="-1.5779">
        <ele>16</ele>
        <time>2021-07-21T14:17:00Z</time>
      </trkpt>
      <trkpt lat="47.2004" lon="-1.57905">
        <ele>10</ele>
        <time>2021-07-21T14:17:22Z</time>
      </trkpt>
      <trkpt lat="47.20003" lon="-1.57974">
        <ele>6</ele>
        <time>2021-07-21T14:17:36Z</time>
      </trkpt>
      <trkpt lat="47.19965" lon="-1.58107">
        <ele>9</ele>
        <time>2021-07-21T14:17:59Z</time>
      </trkpt>
      <trkpt lat="47.19915" lon="-1.5826">
        <ele>11</ele>
        <time>2021-07-21T14:18:26Z</time>
      </trkpt>
      <trkpt lat="47.19875" lon="-1.58445">
        <ele>11</ele>
        <time>2021-07-21T14:18:56Z</time>
      </trkpt>
      <trkpt lat="47.19864" lon="-1.58514">
        <ele>11</ele>
        <time>2021-07-21T14:19:08Z</time>
      </trkpt>
      <trkpt lat="47.19841" lon="-1.58771">
        <ele>11</ele>
        <time>2021-07-21T14:19:49Z</time>
      </trkpt>
      <trkpt lat="47.19835" lon="-1.58816">
        <ele>11</ele>
        <time>2021-07-21T14:19:56Z</time>
      </trkpt>
      <trkpt lat="47.19839" lon="-1.58842">
        <ele>11</ele>
        <time>2021-07-21T14:20:00Z</time>
      </trkpt>
      <trkpt lat="47.19817" lon="-1.58857">
        <ele>10</ele>
        <time>2021-07-21T14:20:06Z</time>
      </trkpt>
      <trkpt lat="47.19806" lon="-1.58872">
        <ele>9</ele>
        <time>2021-07-21T14:20:09Z</time>
      </trkpt>
      <trkpt lat="47.19792" lon="-1.58949">
        <ele>9</ele>
        <time>2021-07-21T14:20:22Z</time>
      </trkpt>
      <trkpt lat="47.19781" lon="-1.58956">
        <ele>9</ele>
        <time>2021-07-21T14:20:25Z</time>
      </trkpt>
      <trkpt lat="47.19774" lon="-1.58971">
        <ele>9</ele>
        <time>2021-07-21T14:20:28Z</time>
      </trkpt>
      <trkpt lat="47.1976" lon="-1.59047">
        <ele>9</ele>
        <time>2021-07-21T14:20:40Z</time>
      </trkpt>
      <trkpt lat="47.19741" lon="-1.59177">
        <ele>5</ele>
        <time>2021-07-21T14:21:01Z</time>
      </trkpt>
      <trkpt lat="47.19678" lon="-1.59425">
        <ele>7</ele>
        <time>2021-07-21T14:21:43Z</time>
      </trkpt>
      <trkpt lat="47.19649" lon="-1.59586">
        <ele>5</ele>
        <time>2021-07-21T14:22:10Z</time>
      </trkpt>
      <trkpt lat="47.19624" lon="-1.59682">
        <ele>5</ele>
        <time>2021-07-21T14:22:26Z</time>
      </trkpt>
      <trkpt lat="47.19599" lon="-1.59761">
        <ele>6</ele>
        <time>2021-07-21T14:22:40Z</time>
      </trkpt>
      <trkpt lat="47.19582" lon="-1.59804">
        <ele>5</ele>
        <time>2021-07-21T14:22:48Z</time>
      </trkpt>
      <trkpt lat="47.19576" lon="-1.59843">
        <ele>5</ele>
        <time>2021-07-21T14:22:54Z</time>
      </trkpt>
      <trkpt lat="47.19553" lon="-1.59931">
        <ele>4</ele>
        <time>2021-07-21T14:23:09Z</time>
      </trkpt>
      <trkpt lat="47.1953" lon="-1.60217">
        <ele>6</ele>
        <time>2021-07-21T14:23:55Z</time>
      </trkpt>
      <trkpt lat="47.19525" lon="-1.60337">
        <ele>6</ele>
        <time>2021-07-21T14:24:14Z</time>
      </trkpt>
      <trkpt lat="47.19505" lon="-1.60592">
        <ele>6</ele>
        <time>2021-07-21T14:24:55Z</time>
      </trkpt>
      <trkpt lat="47.19474" lon="-1.60858">
        <ele>7</ele>
        <time>2021-07-21T14:25:38Z</time>
      </trkpt>
      <trkpt lat="47.19466" lon="-1.61067">
        <ele>4</ele>
        <time>2021-07-21T14:26:11Z</time>
      </trkpt>
      <trkpt lat="47.19478" lon="-1.61297">
        <ele>5</ele>
        <time>2021-07-21T14:26:47Z</time>
      </trkpt>
      <trkpt lat="47.19479" lon="-1.6147">
        <ele>7</ele>
        <time>2021-07-21T14:27:15Z</time>
      </trkpt>
      <trkpt lat="47.19455" lon="-1.61654">
        <ele>8</ele>
        <time>2021-07-21T14:27:45Z</time>
      </trkpt>
      <trkpt lat="47.19434" lon="-1.61792">
        <ele>4</ele>
        <time>2021-07-21T14:28:07Z</time>
      </trkpt>
      <trkpt lat="47.19445" lon="-1.61899">
        <ele>4</ele>
        <time>2021-07-21T14:28:24Z</time>
      </trkpt>
      <trkpt lat="47.19466" lon="-1.62009">
        <ele>7</ele>
        <time>2021-07-21T14:28:42Z</time>
      </trkpt>
      <trkpt lat="47.19462" lon="-1.62248">
        <ele>3</ele>
        <time>2021-07-21T14:29:20Z</time>
      </trkpt>
      <trkpt lat="47.19473" lon="-1.62409">
        <ele>5</ele>
        <time>2021-07-21T14:29:46Z</time>
      </trkpt>
      <trkpt lat="47.19464" lon="-1.62652">
        <ele>7</ele>
        <time>2021-07-21T14:30:25Z</time>
      </trkpt>
      <trkpt lat="47.19483" lon="-1.62807">
        <ele>6</ele>
        <time>2021-07-21T14:30:50Z</time>
      </trkpt>
      <trkpt lat="47.19497" lon="-1.63014">
        <ele>4</ele>
        <time>2021-07-21T14:31:23Z</time>
      </trkpt>
      <trkpt lat="47.19493" lon="-1.63195">
        <ele>4</ele>
        <time>2021-07-21T14:31:51Z</time>
      </trkpt>
      <trkpt lat="47.19434" lon="-1.63751">
        <ele>6</ele>
        <time>2021-07-21T14:33:21Z</time>
      </trkpt>
      <trkpt lat="47.19427" lon="-1.63846">
        <ele>5</ele>
        <time>2021-07-21T14:33:36Z</time>
      </trkpt>
      <trkpt lat="47.19401" lon="-1.64109">
        <ele>5</ele>
        <time>2021-07-21T14:34:18Z</time>
      </trkpt>
      <trkpt lat="47.19398" lon="-1.64252">
        <ele>4</ele>
        <time>2021-07-21T14:34:41Z</time>
      </trkpt>
      <trkpt lat="47.19375" lon="-1.6444">
        <ele>5</ele>
        <time>2021-07-21T14:35:11Z</time>
      </trkpt>
      <trkpt lat="47.19372" lon="-1.64604">
        <ele>5</ele>
        <time>2021-07-21T14:35:37Z</time>
      </trkpt>
      <trkpt lat="47.19338" lon="-1.64714">
        <ele>6</ele>
        <time>2021-07-21T14:35:56Z</time>
      </trkpt>
      <trkpt lat="47.19363" lon="-1.64787">
        <ele>8</ele>
        <time>2021-07-21T14:36:09Z</time>
      </trkpt>
      <trkpt lat="47.19415" lon="-1.6491">
        <ele>10</ele>
        <time>2021-07-21T14:36:32Z</time>
      </trkpt>
      <trkpt lat="47.19457" lon="-1.64994">
        <ele>12</ele>
        <time>2021-07-21T14:36:49Z</time>
      </trkpt>
      <trkpt lat="47.19528" lon="-1.65265">
        <ele>9</ele>
        <time>2021-07-21T14:37:35Z</time>
      </trkpt>
      <trkpt lat="47.19575" lon="-1.65402">
        <ele>5</ele>
        <time>2021-07-21T14:37:59Z</time>
      </trkpt>
      <trkpt lat="47.19608" lon="-1.65548">
        <ele>5</ele>
        <time>2021-07-21T14:38:23Z</time>
      </trkpt>
      <trkpt lat="47.19663" lon="-1.65821">
        <ele>6</ele>
        <time>2021-07-21T14:39:09Z</time>
      </trkpt>
      <trkpt lat="47.19717" lon="-1.66005">
        <ele>5</ele>
        <time>2021-07-21T14:39:40Z</time>
      </trkpt>
      <trkpt lat="47.19745" lon="-1.66112">
        <ele>5</ele>
        <time>2021-07-21T14:39:59Z</time>
      </trkpt>
      <trkpt lat="47.19753" lon="-1.66199">
        <ele>5</ele>
        <time>2021-07-21T14:40:13Z</time>
      </trkpt>
      <trkpt lat="47.19719" lon="-1.66599">
        <ele>7</ele>
        <time>2021-07-21T14:41:17Z</time>
      </trkpt>
      <trkpt lat="47.19701" lon="-1.6666">
        <ele>9</ele>
        <time>2021-07-21T14:41:27Z</time>
      </trkpt>
      <trkpt lat="47.19653" lon="-1.66617">
        <ele>8</ele>
        <time>2021-07-21T14:41:40Z</time>
      </trkpt>
      <trkpt lat="47.19601" lon="-1.66632">
        <ele>7</ele>
        <time>2021-07-21T14:41:53Z</time>
      </trkpt>
      <trkpt lat="47.19599" lon="-1.66801">
        <ele>10</ele>
        <time>2021-07-21T14:42:19Z</time>
      </trkpt>
      <trkpt lat="47.19651" lon="-1.66982">
        <ele>7</ele>
        <time>2021-07-21T14:42:51Z</time>
      </trkpt>
      <trkpt lat="47.19724" lon="-1.67127">
        <ele>5</ele>
        <time>2021-07-21T14:43:19Z</time>
      </trkpt>
      <trkpt lat="47.19837" lon="-1.67372">
        <ele>5</ele>
        <time>2021-07-21T14:44:06Z</time>
      </trkpt>
      <trkpt lat="47.1987" lon="-1.67426">
        <ele>6</ele>
        <time>2021-07-21T14:44:18Z</time>
      </trkpt>
      <trkpt lat="47.19956" lon="-1.6763">
        <ele>7</ele>
        <time>2021-07-21T14:44:56Z</time>
      </trkpt>
      <trkpt lat="47.20067" lon="-1.67801">
        <ele>6</ele>
        <time>2021-07-21T14:45:33Z</time>
      </trkpt>
      <trkpt lat="47.20137" lon="-1.67918">
        <ele>6</ele>
        <time>2021-07-21T14:45:58Z</time>
      </trkpt>
      <trkpt lat="47.20242" lon="-1.67835">
        <ele>11</ele>
        <time>2021-07-21T14:46:26Z</time>
      </trkpt>
      <trkpt lat="47.2015" lon="-1.67566">
        <ele>9</ele>
        <time>2021-07-21T14:47:14Z</time>
      </trkpt>
      <trkpt lat="47.20115" lon="-1.67486">
        <ele>9</ele>
        <time>2021-07-21T14:47:29Z</time>
      </trkpt>
      <trkpt lat="47.20188" lon="-1.67445">
        <ele>6</ele>
        <time>2021-07-21T14:47:47Z</time>
      </trkpt>
      <trkpt lat="47.20313" lon="-1.6739">
        <ele>5</ele>
        <time>2021-07-21T14:48:18Z</time>
      </trkpt>
      <trkpt lat="47.20353" lon="-1.67409">
        <ele>5</ele>
        <time>2021-07-21T14:48:27Z</time>
      </trkpt>
      <trkpt lat="47.20374" lon="-1.67492">
        <ele>6</ele>
        <time>2021-07-21T14:48:41Z</time>
      </trkpt>
      <trkpt lat="47.20402" lon="-1.67551">
        <ele>6</ele>
        <time>2021-07-21T14:48:53Z</time>
      </trkpt>
      <trkpt lat="47.20476" lon="-1.67622">
        <ele>4</ele>
        <time>2021-07-21T14:49:13Z</time>
      </trkpt>
      <trkpt lat="47.20527" lon="-1.6777">
        <ele>6</ele>
        <time>2021-07-21T14:49:40Z</time>
      </trkpt>
      <trkpt lat="47.20586" lon="-1.67916">
        <ele>2</ele>
        <time>2021-07-21T14:50:07Z</time>
      </trkpt>
      <trkpt lat="47.20639" lon="-1.6813">
        <ele>2</ele>
        <time>2021-07-21T14:50:43Z</time>
      </trkpt>
      <trkpt lat="47.20702" lon="-1.68345">
        <ele>5</ele>
        <time>2021-07-21T14:51:20Z</time>
      </trkpt>
      <trkpt lat="47.20752" lon="-1.68493">
        <ele>6</ele>
        <time>2021-07-21T14:51:46Z</time>
      </trkpt>
      <trkpt lat="47.20808" lon="-1.68707">
        <ele>4</ele>
        <time>2021-07-21T14:52:23Z</time>
      </trkpt>
      <trkpt lat="47.20861" lon="-1.68924">
        <ele>4</ele>
        <time>2021-07-21T14:52:59Z</time>
      </trkpt>
      <trkpt lat="47.20889" lon="-1.69153">
        <ele>4</ele>
        <time>2021-07-21T14:53:36Z</time>
      </trkpt>
      <trkpt lat="47.20934" lon="-1.6974">
        <ele>4</ele>
        <time>2021-07-21T14:55:10Z</time>
      </trkpt>
      <trkpt lat="47.20941" lon="-1.69985">
        <ele>4</ele>
        <time>2021-07-21T14:55:49Z</time>
      </trkpt>
      <trkpt lat="47.20957" lon="-1.70179">
        <ele>6</ele>
        <time>2021-07-21T14:56:20Z</time>
      </trkpt>
      <trkpt lat="47.20967" lon="-1.7048">
        <ele>6</ele>
        <time>2021-07-21T14:57:08Z</time>
      </trkpt>
      <trkpt lat="47.2095" lon="-1.70715">
        <ele>5</ele>
        <time>2021-07-21T14:57:45Z</time>
      </trkpt>
      <trkpt lat="47.21007" lon="-1.70968">
        <ele>5</ele>
        <time>2021-07-21T14:58:27Z</time>
      </trkpt>
      <trkpt lat="47.21024" lon="-1.71077">
        <ele>7</ele>
        <time>2021-07-21T14:58:45Z</time>
      </trkpt>
      <trkpt lat="47.20981" lon="-1.71225">
        <ele>7</ele>
        <time>2021-07-21T14:59:11Z</time>
      </trkpt>
      <trkpt lat="47.20865" lon="-1.7132">
        <ele>5</ele>
        <time>2021-07-21T14:59:42Z</time>
      </trkpt>
      <trkpt lat="47.2084" lon="-1.71483">
        <ele>2</ele>
        <time>2021-07-21T15:00:08Z</time>
      </trkpt>
      <trkpt lat="47.20847" lon="-1.71902">
        <ele>5</ele>
        <time>2021-07-21T15:01:15Z</time>
      </trkpt>
      <trkpt lat="47.20906" lon="-1.72754">
        <ele>7</ele>
        <time>2021-07-21T15:03:30Z</time>
      </trkpt>
      <trkpt lat="47.20976" lon="-1.72994">
        <ele>7</ele>
        <time>2021-07-21T15:04:12Z</time>
      </trkpt>
      <trkpt lat="47.21042" lon="-1.73144">
        <ele>6</ele>
        <time>2021-07-21T15:04:40Z</time>
      </trkpt>
      <trkpt lat="47.21123" lon="-1.73172">
        <ele>7</ele>
        <time>2021-07-21T15:05:00Z</time>
      </trkpt>
      <trkpt lat="47.21116" lon="-1.7331">
        <ele>5</ele>
        <time>2021-07-21T15:05:22Z</time>
      </trkpt>
      <trkpt lat="47.21109" lon="-1.73553">
        <ele>4</ele>
        <time>2021-07-21T15:06:00Z</time>
      </trkpt>
      <trkpt lat="47.21114" lon="-1.73711">
        <ele>4</ele>
        <time>2021-07-21T15:06:25Z</time>
      </trkpt>
      <trkpt lat="47.2114" lon="-1.73874">
        <ele>4</ele>
        <time>2021-07-21T15:06:52Z</time>
      </trkpt>
      <trkpt lat="47.21168" lon="-1.74012">
        <ele>4</ele>
        <time>2021-07-21T15:07:15Z</time>
      </trkpt>
      <trkpt lat="47.21151" lon="-1.74096">
        <ele>4</ele>
        <time>2021-07-21T15:07:29Z</time>
      </trkpt>
      <trkpt lat="47.21094" lon="-1.7417">
        <ele>2</ele>
        <time>2021-07-21T15:07:46Z</time>
      </trkpt>
      <trkpt lat="47.21038" lon="-1.74249">
        <ele>3</ele>
        <time>2021-07-21T15:08:05Z</time>
      </trkpt>
      <trkpt lat="47.20996" lon="-1.74372">
        <ele>3</ele>
        <time>2021-07-21T15:08:26Z</time>
      </trkpt>
      <trkpt lat="47.20979" lon="-1.74533">
        <ele>7</ele>
        <time>2021-07-21T15:08:52Z</time>
      </trkpt>
      <trkpt lat="47.2096" lon="-1.74749">
        <ele>10</ele>
        <time>2021-07-21T15:09:27Z</time>
      </trkpt>
      <trkpt lat="47.20943" lon="-1.74852">
        <ele>8</ele>
        <time>2021-07-21T15:09:44Z</time>
      </trkpt>
      <trkpt lat="47.20873" lon="-1.74903">
        <ele>4</ele>
        <time>2021-07-21T15:10:02Z</time>
      </trkpt>
      <trkpt lat="47.20783" lon="-1.74923">
        <ele>3</ele>
        <time>2021-07-21T15:10:23Z</time>
      </trkpt>
      <trkpt lat="47.20705" lon="-1.74956">
        <ele>3</ele>
        <time>2021-07-21T15:10:42Z</time>
      </trkpt>
      <trkpt lat="47.20653" lon="-1.75038">
        <ele>3</ele>
        <time>2021-07-21T15:11:00Z</time>
      </trkpt>
      <trkpt lat="47.20605" lon="-1.75165">
        <ele>2</ele>
        <time>2021-07-21T15:11:23Z</time>
      </trkpt>
      <trkpt lat="47.20319" lon="-1.75566">
        <ele>5</ele>
        <time>2021-07-21T15:12:55Z</time>
      </trkpt>
      <trkpt lat="47.20325" lon="-1.75634">
        <ele>6</ele>
        <time>2021-07-21T15:13:06Z</time>
      </trkpt>
      <trkpt lat="47.20386" lon="-1.75933">
        <ele>6</ele>
        <time>2021-07-21T15:13:56Z</time>
      </trkpt>
      <trkpt lat="47.20408" lon="-1.76067">
        <ele>7</ele>
        <time>2021-07-21T15:14:17Z</time>
      </trkpt>
      <trkpt lat="47.20416" lon="-1.7617">
        <ele>9</ele>
        <time>2021-07-21T15:14:34Z</time>
      </trkpt>
      <trkpt lat="47.20436" lon="-1.76282">
        <ele>6</ele>
        <time>2021-07-21T15:14:52Z</time>
      </trkpt>
      <trkpt lat="47.20458" lon="-1.76448">
        <ele>5</ele>
        <time>2021-07-21T15:15:19Z</time>
      </trkpt>
      <trkpt lat="47.20467" lon="-1.76543">
        <ele>5</ele>
        <time>2021-07-21T15:15:34Z</time>
      </trkpt>
      <trkpt lat="47.205" lon="-1.76671">
        <ele>6</ele>
        <time>2021-07-21T15:15:56Z</time>
      </trkpt>
      <trkpt lat="47.20556" lon="-1.76985">
        <ele>6</ele>
        <time>2021-07-21T15:16:47Z</time>
      </trkpt>
      <trkpt lat="47.20572" lon="-1.77281">
        <ele>8</ele>
        <time>2021-07-21T15:17:35Z</time>
      </trkpt>
      <trkpt lat="47.20595" lon="-1.77469">
        <ele>10</ele>
        <time>2021-07-21T15:18:05Z</time>
      </trkpt>
      <trkpt lat="47.20613" lon="-1.77565">
        <ele>8</ele>
        <time>2021-07-21T15:18:21Z</time>
      </trkpt>
      <trkpt lat="47.20593" lon="-1.77822">
        <ele>11</ele>
        <time>2021-07-21T15:19:02Z</time>
      </trkpt>
      <trkpt lat="47.20582" lon="-1.779">
        <ele>11</ele>
        <time>2021-07-21T15:19:14Z</time>
      </trkpt>
      <trkpt lat="47.20587" lon="-1.78">
        <ele>8</ele>
        <time>2021-07-21T15:19:30Z</time>
      </trkpt>
      <trkpt lat="47.20589" lon="-1.7815">
        <ele>7</ele>
        <time>2021-07-21T15:19:54Z</time>
      </trkpt>
      <trkpt lat="47.20608" lon="-1.78276">
        <ele>6</ele>
        <time>2021-07-21T15:20:15Z</time>
      </trkpt>
      <trkpt lat="47.20624" lon="-1.78413">
        <ele>6</ele>
        <time>2021-07-21T15:20:37Z</time>
      </trkpt>
      <trkpt lat="47.20624" lon="-1.78505">
        <ele>8</ele>
        <time>2021-07-21T15:20:51Z</time>
      </trkpt>
      <trkpt lat="47.20637" lon="-1.78534">
        <ele>8</ele>
        <time>2021-07-21T15:20:57Z</time>
      </trkpt>
      <trkpt lat="47.20692" lon="-1.78552">
        <ele>7</ele>
        <time>2021-07-21T15:21:10Z</time>
      </trkpt>
      <trkpt lat="47.20766" lon="-1.78569">
        <ele>4</ele>
        <time>2021-07-21T15:21:27Z</time>
      </trkpt>
      <trkpt lat="47.2082" lon="-1.7861">
        <ele>4</ele>
        <time>2021-07-21T15:21:42Z</time>
      </trkpt>
      <trkpt lat="47.20828" lon="-1.78693">
        <ele>3</ele>
        <time>2021-07-21T15:21:55Z</time>
      </trkpt>
      <trkpt lat="47.20803" lon="-1.78835">
        <ele>4</ele>
        <time>2021-07-21T15:22:18Z</time>
      </trkpt>
      <trkpt lat="47.20777" lon="-1.78941">
        <ele>5</ele>
        <time>2021-07-21T15:22:36Z</time>
      </trkpt>
      <trkpt lat="47.20738" lon="-1.79023">
        <ele>6</ele>
        <time>2021-07-21T15:22:52Z</time>
      </trkpt>
      <trkpt lat="47.20709" lon="-1.79126">
        <ele>4</ele>
        <time>2021-07-21T15:23:10Z</time>
      </trkpt>
      <trkpt lat="47.20705" lon="-1.79231">
        <ele>3</ele>
        <time>2021-07-21T15:23:26Z</time>
      </trkpt>
      <trkpt lat="47.20706" lon="-1.79356">
        <ele>2</ele>
        <time>2021-07-21T15:23:46Z</time>
      </trkpt>
      <trkpt lat="47.20684" lon="-1.79448">
        <ele>3</ele>
        <time>2021-07-21T15:24:02Z</time>
      </trkpt>
      <trkpt lat="47.20684" lon="-1.79578">
        <ele>3</ele>
        <time>2021-07-21T15:24:22Z</time>
      </trkpt>
      <trkpt lat="47.20733" lon="-1.80406">
        <ele>4</ele>
        <time>2021-07-21T15:26:34Z</time>
      </trkpt>
      <trkpt lat="47.20855" lon="-1.81179">
        <ele>3</ele>
        <time>2021-07-21T15:28:40Z</time>
      </trkpt>
      <trkpt lat="47.21069" lon="-1.81742">
        <ele>5</ele>
        <time>2021-07-21T15:30:22Z</time>
      </trkpt>
      <trkpt lat="47.2138" lon="-1.82265">
        <ele>3</ele>
        <time>2021-07-21T15:32:13Z</time>
      </trkpt>
      <trkpt lat="47.21446" lon="-1.82339">
        <ele>2</ele>
        <time>2021-07-21T15:32:32Z</time>
      </trkpt>
      <trkpt lat="47.21413" lon="-1.82396">
        <ele>1</ele>
        <time>2021-07-21T15:32:44Z</time>
      </trkpt>
      <trkpt lat="47.2138" lon="-1.82435">
        <ele>2</ele>
        <time>2021-07-21T15:32:54Z</time>
      </trkpt>
      <trkpt lat="47.21449" lon="-1.82546">
        <ele>1</ele>
        <time>2021-07-21T15:33:18Z</time>
      </trkpt>
      <trkpt lat="47.21805" lon="-1.83206">
        <ele>2</ele>
        <time>2021-07-21T15:35:31Z</time>
      </trkpt>
      <trkpt lat="47.22187" lon="-1.8397">
        <ele>3</ele>
        <time>2021-07-21T15:38:02Z</time>
      </trkpt>
      <trkpt lat="47.22721" lon="-1.85017">
        <ele>4</ele>
        <time>2021-07-21T15:41:29Z</time>
      </trkpt>
      <trkpt lat="47.23535" lon="-1.86706">
        <ele>2</ele>
        <time>2021-07-21T15:46:58Z</time>
      </trkpt>
      <trkpt lat="47.24348" lon="-1.88367">
        <ele>1</ele>
        <time>2021-07-21T15:52:23Z</time>
      </trkpt>
      <trkpt lat="47.25108" lon="-1.90127">
        <ele>2</ele>
        <time>2021-07-21T15:57:53Z</time>
      </trkpt>
      <trkpt lat="47.25671" lon="-1.91123">
        <ele>1</ele>
        <time>2021-07-21T16:01:19Z</time>
      </trkpt>
      <trkpt lat="47.26021" lon="-1.91723">
        <ele>2</ele>
        <time>2021-07-21T16:03:24Z</time>
      </trkpt>
      <trkpt lat="47.26021" lon="-1.91766">
        <ele>2</ele>
        <time>2021-07-21T16:03:31Z</time>
      </trkpt>
      <trkpt lat="47.2626" lon="-1.91444">
        <ele>3</ele>
        <time>2021-07-21T16:04:46Z</time>
      </trkpt>
      <trkpt lat="47.26515" lon="-1.90886">
        <ele>1</ele>
        <time>2021-07-21T16:06:33Z</time>
      </trkpt>
      <trkpt lat="47.26828" lon="-1.90558">
        <ele>1</ele>
        <time>2021-07-21T16:08:03Z</time>
      </trkpt>
      <trkpt lat="47.27166" lon="-1.90182">
        <ele>1</ele>
        <time>2021-07-21T16:09:42Z</time>
      </trkpt>
      <trkpt lat="47.27495" lon="-1.89987">
        <ele>1</ele>
        <time>2021-07-21T16:11:04Z</time>
      </trkpt>
      <trkpt lat="47.26672" lon="-1.90716">
        <ele>2</ele>
        <time>2021-07-21T16:14:49Z</time>
      </trkpt>
      <trkpt lat="47.26006" lon="-1.91741">
        <ele>2</ele>
        <time>2021-07-21T16:18:34Z</time>
      </trkpt>
      <trkpt lat="47.26235" lon="-1.9233">
        <ele>2</ele>
        <time>2021-07-21T16:20:21Z</time>
      </trkpt>
      <trkpt lat="47.26449" lon="-1.93314">
        <ele>2</ele>
        <time>2021-07-21T16:23:05Z</time>
      </trkpt>
      <trkpt lat="47.26531" lon="-1.93846">
        <ele>1</ele>
        <time>2021-07-21T16:24:31Z</time>
      </trkpt>
      <trkpt lat="47.26583" lon="-1.94331">
        <ele>3</ele>
        <time>2021-07-21T16:25:49Z</time>
      </trkpt>
      <trkpt lat="47.26694" lon="-1.94821">
        <ele>2</ele>
        <time>2021-07-21T16:27:11Z</time>
      </trkpt>
      <trkpt lat="47.26656" lon="-1.95001">
        <ele>2</ele>
        <time>2021-07-21T16:27:41Z</time>
      </trkpt>
      <trkpt lat="47.26566" lon="-1.95082">
        <ele>4</ele>
        <time>2021-07-21T16:28:06Z</time>
      </trkpt>
      <trkpt lat="47.26473" lon="-1.95087">
        <ele>6</ele>
        <time>2021-07-21T16:28:27Z</time>
      </trkpt>
      <trkpt lat="47.26476" lon="-1.95271">
        <ele>5</ele>
        <time>2021-07-21T16:28:57Z</time>
      </trkpt>
      <trkpt lat="47.26578" lon="-1.95554">
        <ele>9</ele>
        <time>2021-07-21T16:29:47Z</time>
      </trkpt>
      <trkpt lat="47.26659" lon="-1.95829">
        <ele>10</ele>
        <time>2021-07-21T16:30:35Z</time>
      </trkpt>
      <trkpt lat="47.26761" lon="-1.96125">
        <ele>15</ele>
        <time>2021-07-21T16:31:27Z</time>
      </trkpt>
      <trkpt lat="47.26816" lon="-1.96353">
        <ele>14</ele>
        <time>2021-07-21T16:32:06Z</time>
      </trkpt>
      <trkpt lat="47.26895" lon="-1.96537">
        <ele>13</ele>
        <time>2021-07-21T16:32:40Z</time>
      </trkpt>
      <trkpt lat="47.27044" lon="-1.96902">
        <ele>7</ele>
        <time>2021-07-21T16:33:48Z</time>
      </trkpt>
      <trkpt lat="47.27111" lon="-1.97168">
        <ele>9</ele>
        <time>2021-07-21T16:34:33Z</time>
      </trkpt>
      <trkpt lat="47.27198" lon="-1.97318">
        <ele>6</ele>
        <time>2021-07-21T16:35:04Z</time>
      </trkpt>
      <trkpt lat="47.27259" lon="-1.97469">
        <ele>6</ele>
        <time>2021-07-21T16:35:32Z</time>
      </trkpt>
      <trkpt lat="47.27294" lon="-1.97623">
        <ele>9</ele>
        <time>2021-07-21T16:35:58Z</time>
      </trkpt>
      <trkpt lat="47.27306" lon="-1.97731">
        <ele>11</ele>
        <time>2021-07-21T16:36:15Z</time>
      </trkpt>
      <trkpt lat="47.2737" lon="-1.97766">
        <ele>9</ele>
        <time>2021-07-21T16:36:31Z</time>
      </trkpt>
      <trkpt lat="47.2741" lon="-1.97823">
        <ele>8</ele>
        <time>2021-07-21T16:36:44Z</time>
      </trkpt>
      <trkpt lat="47.27446" lon="-1.98027">
        <ele>5</ele>
        <time>2021-07-21T16:37:17Z</time>
      </trkpt>
      <trkpt lat="47.27448" lon="-1.98149">
        <ele>5</ele>
        <time>2021-07-21T16:37:37Z</time>
      </trkpt>
      <trkpt lat="47.2742" lon="-1.98376">
        <ele>4</ele>
        <time>2021-07-21T16:38:13Z</time>
      </trkpt>
      <trkpt lat="47.27403" lon="-1.98483">
        <ele>5</ele>
        <time>2021-07-21T16:38:31Z</time>
      </trkpt>
      <trkpt lat="47.27462" lon="-1.9854">
        <ele>4</ele>
        <time>2021-07-21T16:38:47Z</time>
      </trkpt>
      <trkpt lat="47.27515" lon="-1.98601">
        <ele>3</ele>
        <time>2021-07-21T16:39:03Z</time>
      </trkpt>
      <trkpt lat="47.27574" lon="-1.98823">
        <ele>2</ele>
        <time>2021-07-21T16:39:40Z</time>
      </trkpt>
      <trkpt lat="47.27599" lon="-1.98966">
        <ele>2</ele>
        <time>2021-07-21T16:40:04Z</time>
      </trkpt>
      <trkpt lat="47.27595" lon="-1.99068">
        <ele>4</ele>
        <time>2021-07-21T16:40:20Z</time>
      </trkpt>
      <trkpt lat="47.27528" lon="-1.99246">
        <ele>3</ele>
        <time>2021-07-21T16:40:52Z</time>
      </trkpt>
      <trkpt lat="47.27512" lon="-1.99364">
        <ele>3</ele>
        <time>2021-07-21T16:41:11Z</time>
      </trkpt>
      <trkpt lat="47.27524" lon="-1.99494">
        <ele>4</ele>
        <time>2021-07-21T16:41:32Z</time>
      </trkpt>
      <trkpt lat="47.2756" lon="-1.99627">
        <ele>4</ele>
        <time>2021-07-21T16:41:55Z</time>
      </trkpt>
      <trkpt lat="47.27573" lon="-1.99752">
        <ele>4</ele>
        <time>2021-07-21T16:42:15Z</time>
      </trkpt>
      <trkpt lat="47.27564" lon="-1.99879">
        <ele>5</ele>
        <time>2021-07-21T16:42:35Z</time>
      </trkpt>
      <trkpt lat="47.27576" lon="-1.99951">
        <ele>4</ele>
        <time>2021-07-21T16:42:47Z</time>
      </trkpt>
      <trkpt lat="47.27609" lon="-2.00032">
        <ele>4</ele>
        <time>2021-07-21T16:43:02Z</time>
      </trkpt>
      <trkpt lat="47.2765" lon="-2.00122">
        <ele>6</ele>
        <time>2021-07-21T16:43:19Z</time>
      </trkpt>
      <trkpt lat="47.2768" lon="-2.00219">
        <ele>5</ele>
        <time>2021-07-21T16:43:36Z</time>
      </trkpt>
      <trkpt lat="47.27668" lon="-2.00384">
        <ele>6</ele>
        <time>2021-07-21T16:44:02Z</time>
      </trkpt>
      <trkpt lat="47.27671" lon="-2.00446">
        <ele>6</ele>
        <time>2021-07-21T16:44:12Z</time>
      </trkpt>
      <trkpt lat="47.27756" lon="-2.00451">
        <ele>4</ele>
        <time>2021-07-21T16:44:32Z</time>
      </trkpt>
      <trkpt lat="47.27834" lon="-2.00502">
        <ele>2</ele>
        <time>2021-07-21T16:44:52Z</time>
      </trkpt>
      <trkpt lat="47.27895" lon="-2.00563">
        <ele>3</ele>
        <time>2021-07-21T16:45:09Z</time>
      </trkpt>
      <trkpt lat="47.27945" lon="-2.00624">
        <ele>3</ele>
        <time>2021-07-21T16:45:24Z</time>
      </trkpt>
      <trkpt lat="47.27955" lon="-2.00691">
        <ele>4</ele>
        <time>2021-07-21T16:45:35Z</time>
      </trkpt>
      <trkpt lat="47.27907" lon="-2.00737">
        <ele>5</ele>
        <time>2021-07-21T16:45:48Z</time>
      </trkpt>
      <trkpt lat="47.27839" lon="-2.00821">
        <ele>4</ele>
        <time>2021-07-21T16:46:09Z</time>
      </trkpt>
      <trkpt lat="47.27805" lon="-2.00869">
        <ele>5</ele>
        <time>2021-07-21T16:46:20Z</time>
      </trkpt>
      <trkpt lat="47.27763" lon="-2.00943">
        <ele>7</ele>
        <time>2021-07-21T16:46:35Z</time>
      </trkpt>
      <trkpt lat="47.27777" lon="-2.01005">
        <ele>7</ele>
        <time>2021-07-21T16:46:46Z</time>
      </trkpt>
      <trkpt lat="47.27811" lon="-2.01096">
        <ele>5</ele>
        <time>2021-07-21T16:47:02Z</time>
      </trkpt>
      <trkpt lat="47.27855" lon="-2.0117">
        <ele>5</ele>
        <time>2021-07-21T16:47:18Z</time>
      </trkpt>
      <trkpt lat="47.279" lon="-2.0129">
        <ele>5</ele>
        <time>2021-07-21T16:47:40Z</time>
      </trkpt>
      <trkpt lat="47.27929" lon="-2.01405">
        <ele>4</ele>
        <time>2021-07-21T16:47:59Z</time>
      </trkpt>
      <trkpt lat="47.27945" lon="-2.01482">
        <ele>2</ele>
        <time>2021-07-21T16:48:12Z</time>
      </trkpt>
      <trkpt lat="47.28045" lon="-2.01507">
        <ele>2</ele>
        <time>2021-07-21T16:48:35Z</time>
      </trkpt>
      <trkpt lat="47.28161" lon="-2.01556">
        <ele>2</ele>
        <time>2021-07-21T16:49:04Z</time>
      </trkpt>
      <trkpt lat="47.28329" lon="-2.01589">
        <ele>4</ele>
        <time>2021-07-21T16:49:43Z</time>
      </trkpt>
      <trkpt lat="47.28426" lon="-2.01635">
        <ele>5</ele>
        <time>2021-07-21T16:50:07Z</time>
      </trkpt>
      <trkpt lat="47.28519" lon="-2.01658">
        <ele>5</ele>
        <time>2021-07-21T16:50:29Z</time>
      </trkpt>
      <trkpt lat="47.28601" lon="-2.01737">
        <ele>4</ele>
        <time>2021-07-21T16:50:52Z</time>
      </trkpt>
      <trkpt lat="47.28653" lon="-2.01813">
        <ele>4</ele>
        <time>2021-07-21T16:51:09Z</time>
      </trkpt>
      <trkpt lat="47.28717" lon="-2.01959">
        <ele>3</ele>
        <time>2021-07-21T16:51:37Z</time>
      </trkpt>
      <trkpt lat="47.28741" lon="-2.02051">
        <ele>3</ele>
        <time>2021-07-21T16:51:52Z</time>
      </trkpt>
      <trkpt lat="47.28791" lon="-2.02143">
        <ele>3</ele>
        <time>2021-07-21T16:52:11Z</time>
      </trkpt>
      <trkpt lat="47.28833" lon="-2.02293">
        <ele>3</ele>
        <time>2021-07-21T16:52:37Z</time>
      </trkpt>
      <trkpt lat="47.28841" lon="-2.02434">
        <ele>4</ele>
        <time>2021-07-21T16:52:59Z</time>
      </trkpt>
      <trkpt lat="47.28845" lon="-2.02566">
        <ele>4</ele>
        <time>2021-07-21T16:53:20Z</time>
      </trkpt>
      <trkpt lat="47.28862" lon="-2.02684">
        <ele>4</ele>
        <time>2021-07-21T16:53:39Z</time>
      </trkpt>
      <trkpt lat="47.28916" lon="-2.02722">
        <ele>3</ele>
        <time>2021-07-21T16:53:53Z</time>
      </trkpt>
      <trkpt lat="47.2899" lon="-2.0302">
        <ele>4</ele>
        <time>2021-07-21T16:54:43Z</time>
      </trkpt>
      <trkpt lat="47.28992" lon="-2.03143">
        <ele>4</ele>
        <time>2021-07-21T16:55:03Z</time>
      </trkpt>
      <trkpt lat="47.2898" lon="-2.03268">
        <ele>2</ele>
        <time>2021-07-21T16:55:23Z</time>
      </trkpt>
      <trkpt lat="47.28931" lon="-2.035">
        <ele>3</ele>
        <time>2021-07-21T16:56:01Z</time>
      </trkpt>
      <trkpt lat="47.28916" lon="-2.0386">
        <ele>8</ele>
        <time>2021-07-21T16:56:58Z</time>
      </trkpt>
      <trkpt lat="47.28888" lon="-2.04003">
        <ele>8</ele>
        <time>2021-07-21T16:57:22Z</time>
      </trkpt>
      <trkpt lat="47.28815" lon="-2.0409">
        <ele>6</ele>
        <time>2021-07-21T16:57:44Z</time>
      </trkpt>
      <trkpt lat="47.28738" lon="-2.04212">
        <ele>3</ele>
        <time>2021-07-21T16:58:10Z</time>
      </trkpt>
      <trkpt lat="47.28656" lon="-2.04327">
        <ele>1</ele>
        <time>2021-07-21T16:58:37Z</time>
      </trkpt>
      <trkpt lat="47.28492" lon="-2.04597">
        <ele>3</ele>
        <time>2021-07-21T16:59:34Z</time>
      </trkpt>
      <trkpt lat="47.28327" lon="-2.04934">
        <ele>1</ele>
        <time>2021-07-21T17:00:40Z</time>
      </trkpt>
      <trkpt lat="47.28107" lon="-2.05419">
        <ele>3</ele>
        <time>2021-07-21T17:02:12Z</time>
      </trkpt>
      <trkpt lat="47.27978" lon="-2.05684">
        <ele>2</ele>
        <time>2021-07-21T17:03:04Z</time>
      </trkpt>
      <trkpt lat="47.27907" lon="-2.05752">
        <ele>4</ele>
        <time>2021-07-21T17:03:24Z</time>
      </trkpt>
      <trkpt lat="47.27834" lon="-2.05813">
        <ele>6</ele>
        <time>2021-07-21T17:03:43Z</time>
      </trkpt>
      <trkpt lat="47.27792" lon="-2.0583">
        <ele>6</ele>
        <time>2021-07-21T17:03:54Z</time>
      </trkpt>
      <trkpt lat="47.27766" lon="-2.05871">
        <ele>6</ele>
        <time>2021-07-21T17:04:02Z</time>
      </trkpt>
      <trkpt lat="47.27747" lon="-2.05932">
        <ele>6</ele>
        <time>2021-07-21T17:04:13Z</time>
      </trkpt>
      <trkpt lat="47.27704" lon="-2.05947">
        <ele>6</ele>
        <time>2021-07-21T17:04:23Z</time>
      </trkpt>
      <trkpt lat="47.27657" lon="-2.05983">
        <ele>7</ele>
        <time>2021-07-21T17:04:36Z</time>
      </trkpt>
      <trkpt lat="47.27676" lon="-2.0609">
        <ele>6</ele>
        <time>2021-07-21T17:04:53Z</time>
      </trkpt>
      <trkpt lat="47.27687" lon="-2.06167">
        <ele>5</ele>
        <time>2021-07-21T17:05:06Z</time>
      </trkpt>
      <trkpt lat="47.27718" lon="-2.06158">
        <ele>6</ele>
        <time>2021-07-21T17:05:13Z</time>
      </trkpt>
      <trkpt lat="47.27739" lon="-2.06142">
        <ele>7</ele>
        <time>2021-07-21T17:05:19Z</time>
      </trkpt>
      <trkpt lat="47.27763" lon="-2.06136">
        <ele>7</ele>
        <time>2021-07-21T17:05:24Z</time>
      </trkpt>
      <trkpt lat="47.27774" lon="-2.06186">
        <ele>7</ele>
        <time>2021-07-21T17:05:33Z</time>
      </trkpt>
      <trkpt lat="47.27794" lon="-2.06185">
        <ele>6</ele>
        <time>2021-07-21T17:05:37Z</time>
      </trkpt>
      <trkpt lat="47.2782" lon="-2.06175">
        <ele>6</ele>
        <time>2021-07-21T17:05:44Z</time>
      </trkpt>
      <trkpt lat="47.2784" lon="-2.06157">
        <ele>6</ele>
        <time>2021-07-21T17:05:49Z</time>
      </trkpt>
      <trkpt lat="47.27864" lon="-2.06151">
        <ele>5</ele>
        <time>2021-07-21T17:05:55Z</time>
      </trkpt>
      <trkpt lat="47.27868" lon="-2.06183">
        <ele>6</ele>
        <time>2021-07-21T17:06:00Z</time>
      </trkpt>
      <trkpt lat="47.27902" lon="-2.0619">
        <ele>5</ele>
        <time>2021-07-21T17:06:08Z</time>
      </trkpt>
      <trkpt lat="47.27949" lon="-2.06206">
        <ele>4</ele>
        <time>2021-07-21T17:06:19Z</time>
      </trkpt>
      <trkpt lat="47.27978" lon="-2.06221">
        <ele>3</ele>
        <time>2021-07-21T17:06:26Z</time>
      </trkpt>
      <trkpt lat="47.27995" lon="-2.0626">
        <ele>2</ele>
        <time>2021-07-21T17:06:34Z</time>
      </trkpt>
      <trkpt lat="47.28012" lon="-2.06284">
        <ele>2</ele>
        <time>2021-07-21T17:06:39Z</time>
      </trkpt>
      <trkpt lat="47.28081" lon="-2.06265">
        <ele>2</ele>
        <time>2021-07-21T17:06:56Z</time>
      </trkpt>
      <trkpt lat="47.28122" lon="-2.06285">
        <ele>2</ele>
        <time>2021-07-21T17:07:06Z</time>
      </trkpt>
      <trkpt lat="47.28144" lon="-2.06339">
        <ele>2</ele>
        <time>2021-07-21T17:07:16Z</time>
      </trkpt>
      <trkpt lat="47.28149" lon="-2.06414">
        <ele>3</ele>
        <time>2021-07-21T17:07:28Z</time>
      </trkpt>
      <trkpt lat="47.28133" lon="-2.06654">
        <ele>4</ele>
        <time>2021-07-21T17:08:06Z</time>
      </trkpt>
      <trkpt lat="47.28113" lon="-2.06902">
        <ele>4</ele>
        <time>2021-07-21T17:08:45Z</time>
      </trkpt>
      <trkpt lat="47.28113" lon="-2.06989">
        <ele>3</ele>
        <time>2021-07-21T17:08:59Z</time>
      </trkpt>
      <trkpt lat="47.28106" lon="-2.07175">
        <ele>2</ele>
        <time>2021-07-21T17:09:29Z</time>
      </trkpt>
      <trkpt lat="47.28107" lon="-2.07282">
        <ele>2</ele>
        <time>2021-07-21T17:09:46Z</time>
      </trkpt>
      <trkpt lat="47.28114" lon="-2.07496">
        <ele>2</ele>
        <time>2021-07-21T17:10:20Z</time>
      </trkpt>
      <trkpt lat="47.28111" lon="-2.07644">
        <ele>3</ele>
        <time>2021-07-21T17:10:43Z</time>
      </trkpt>
      <trkpt lat="47.28068" lon="-2.07948">
        <ele>2</ele>
        <time>2021-07-21T17:11:32Z</time>
      </trkpt>
      <trkpt lat="47.28062" lon="-2.08121">
        <ele>1</ele>
        <time>2021-07-21T17:12:00Z</time>
      </trkpt>
      <trkpt lat="47.28021" lon="-2.0843">
        <ele>1</ele>
        <time>2021-07-21T17:12:50Z</time>
      </trkpt>
      <trkpt lat="47.27962" lon="-2.08979">
        <ele>2</ele>
        <time>2021-07-21T17:14:18Z</time>
      </trkpt>
      <trkpt lat="47.27905" lon="-2.09563">
        <ele>1</ele>
        <time>2021-07-21T17:15:51Z</time>
      </trkpt>
      <trkpt lat="47.27848" lon="-2.0995">
        <ele>2</ele>
        <time>2021-07-21T17:16:54Z</time>
      </trkpt>
      <trkpt lat="47.27763" lon="-2.10301">
        <ele>1</ele>
        <time>2021-07-21T17:17:53Z</time>
      </trkpt>
      <trkpt lat="47.27675" lon="-2.10548">
        <ele>2</ele>
        <time>2021-07-21T17:18:37Z</time>
      </trkpt>
      <trkpt lat="47.27599" lon="-2.10778">
        <ele>1</ele>
        <time>2021-07-21T17:19:18Z</time>
      </trkpt>
      <trkpt lat="47.27538" lon="-2.11046">
        <ele>1</ele>
        <time>2021-07-21T17:20:02Z</time>
      </trkpt>
      <trkpt lat="47.27519" lon="-2.1125">
        <ele>1</ele>
        <time>2021-07-21T17:20:35Z</time>
      </trkpt>
      <trkpt lat="47.27498" lon="-2.11426">
        <ele>1</ele>
        <time>2021-07-21T17:21:03Z</time>
      </trkpt>
      <trkpt lat="47.27522" lon="-2.11579">
        <ele>1</ele>
        <time>2021-07-21T17:21:28Z</time>
      </trkpt>
      <trkpt lat="47.27528" lon="-2.11702">
        <ele>2</ele>
        <time>2021-07-21T17:21:48Z</time>
      </trkpt>
      <trkpt lat="47.27512" lon="-2.11895">
        <ele>1</ele>
        <time>2021-07-21T17:22:19Z</time>
      </trkpt>
      <trkpt lat="47.27495" lon="-2.12413">
        <ele>1</ele>
        <time>2021-07-21T17:23:41Z</time>
      </trkpt>
      <trkpt lat="47.27484" lon="-2.12564">
        <ele>3</ele>
        <time>2021-07-21T17:24:05Z</time>
      </trkpt>
      <trkpt lat="47.27488" lon="-2.12679">
        <ele>1</ele>
        <time>2021-07-21T17:24:23Z</time>
      </trkpt>
      <trkpt lat="47.27477" lon="-2.12773">
        <ele>1</ele>
        <time>2021-07-21T17:24:38Z</time>
      </trkpt>
      <trkpt lat="47.27467" lon="-2.12903">
        <ele>1</ele>
        <time>2021-07-21T17:24:59Z</time>
      </trkpt>
      <trkpt lat="47.27441" lon="-2.13054">
        <ele>2</ele>
        <time>2021-07-21T17:25:24Z</time>
      </trkpt>
      <trkpt lat="47.27415" lon="-2.13301">
        <ele>4.8</ele>
        <time>2021-07-21T17:26:03Z</time>
      </trkpt>
      <trkpt lat="47.2738" lon="-2.13437">
        <ele>2</ele>
        <time>2021-07-21T17:26:26Z</time>
      </trkpt>
      <trkpt lat="47.2736" lon="-2.13452">
        <ele>2</ele>
        <time>2021-07-21T17:26:32Z</time>
      </trkpt>
      <trkpt lat="47.27323" lon="-2.13449">
        <ele>3</ele>
        <time>2021-07-21T17:26:40Z</time>
      </trkpt>
      <trkpt lat="47.27278" lon="-2.13523">
        <ele>3</ele>
        <time>2021-07-21T17:26:56Z</time>
      </trkpt>
      <trkpt lat="47.27233" lon="-2.13631">
        <ele>3</ele>
        <time>2021-07-21T17:27:16Z</time>
      </trkpt>
      <trkpt lat="47.27173" lon="-2.13743">
        <ele>3</ele>
        <time>2021-07-21T17:27:39Z</time>
      </trkpt>
      <trkpt lat="47.27119" lon="-2.13904">
        <ele>2</ele>
        <time>2021-07-21T17:28:07Z</time>
      </trkpt>
      <trkpt lat="47.27067" lon="-2.14016">
        <ele>3</ele>
        <time>2021-07-21T17:28:29Z</time>
      </trkpt>
      <trkpt lat="47.27051" lon="-2.14164">
        <ele>4</ele>
        <time>2021-07-21T17:28:52Z</time>
      </trkpt>
      <trkpt lat="47.27048" lon="-2.1422">
        <ele>1</ele>
        <time>2021-07-21T17:29:01Z</time>
      </trkpt>
      <trkpt lat="47.27058" lon="-2.14289">
        <ele>2</ele>
        <time>2021-07-21T17:29:12Z</time>
      </trkpt>
      <trkpt lat="47.26987" lon="-2.14613">
        <ele>3</ele>
        <time>2021-07-21T17:30:06Z</time>
      </trkpt>
      <trkpt lat="47.26949" lon="-2.14728">
        <ele>2</ele>
        <time>2021-07-21T17:30:27Z</time>
      </trkpt>
      <trkpt lat="47.26937" lon="-2.14868">
        <ele>2</ele>
        <time>2021-07-21T17:30:49Z</time>
      </trkpt>
      <trkpt lat="47.26923" lon="-2.14955">
        <ele>2</ele>
        <time>2021-07-21T17:31:03Z</time>
      </trkpt>
      <trkpt lat="47.26897" lon="-2.14986">
        <ele>2</ele>
        <time>2021-07-21T17:31:11Z</time>
      </trkpt>
      <trkpt lat="47.26856" lon="-2.15014">
        <ele>2</ele>
        <time>2021-07-21T17:31:22Z</time>
      </trkpt>
      <trkpt lat="47.26946" lon="-2.15026">
        <ele>2</ele>
        <time>2021-07-21T17:31:43Z</time>
      </trkpt>
      <trkpt lat="47.2696" lon="-2.15121">
        <ele>2</ele>
        <time>2021-07-21T17:31:58Z</time>
      </trkpt>
      <trkpt lat="47.26979" lon="-2.15218">
        <ele>2</ele>
        <time>2021-07-21T17:32:14Z</time>
      </trkpt>
      <trkpt lat="47.26979" lon="-2.15412">
        <ele>2</ele>
        <time>2021-07-21T17:32:45Z</time>
      </trkpt>
      <trkpt lat="47.26954" lon="-2.15652">
        <ele>3</ele>
        <time>2021-07-21T17:33:23Z</time>
      </trkpt>
      <trkpt lat="47.26939" lon="-2.15838">
        <ele>2</ele>
        <time>2021-07-21T17:33:53Z</time>
      </trkpt>
      <trkpt lat="47.26916" lon="-2.15943">
        <ele>2</ele>
        <time>2021-07-21T17:34:10Z</time>
      </trkpt>
      <trkpt lat="47.26901" lon="-2.16027">
        <ele>2</ele>
        <time>2021-07-21T17:34:24Z</time>
      </trkpt>
      <trkpt lat="47.26882" lon="-2.16098">
        <ele>3</ele>
        <time>2021-07-21T17:34:36Z</time>
      </trkpt>
      <trkpt lat="47.26859" lon="-2.16129">
        <ele>4</ele>
        <time>2021-07-21T17:34:44Z</time>
      </trkpt>
      <trkpt lat="47.26812" lon="-2.16111">
        <ele>5</ele>
        <time>2021-07-21T17:34:55Z</time>
      </trkpt>
      <trkpt lat="47.26728" lon="-2.16111">
        <ele>4</ele>
        <time>2021-07-21T17:35:15Z</time>
      </trkpt>
      <trkpt lat="47.26773" lon="-2.16159">
        <ele>4</ele>
        <time>2021-07-21T17:35:28Z</time>
      </trkpt>
      <trkpt lat="47.26866" lon="-2.16177">
        <ele>3</ele>
        <time>2021-07-21T17:35:49Z</time>
      </trkpt>
      <trkpt lat="47.27041" lon="-2.16236">
        <time>2021-07-21T17:36:31Z</time>
      </trkpt>
      <trkpt lat="47.272" lon="-2.16284">
        <time>2021-07-21T17:37:09Z</time>
      </trkpt>
      <trkpt lat="47.28946" lon="-2.17375">
        <ele>2</ele>
        <time>2021-07-21T17:44:32Z</time>
      </trkpt>
      <trkpt lat="47.29952" lon="-2.17894">
        <ele>5</ele>
        <time>2021-07-21T17:48:41Z</time>
      </trkpt>
      <trkpt lat="47.30077" lon="-2.17763">
        <ele>4</ele>
        <time>2021-07-21T17:49:17Z</time>
      </trkpt>
      <trkpt lat="47.30176" lon="-2.17832">
        <ele>1</ele>
        <time>2021-07-21T17:49:42Z</time>
      </trkpt>
      <trkpt lat="47.30184" lon="-2.17982">
        <ele>3</ele>
        <time>2021-07-21T17:50:06Z</time>
      </trkpt>
      <trkpt lat="47.30036" lon="-2.18094">
        <ele>3</ele>
        <time>2021-07-21T17:50:45Z</time>
      </trkpt>
      <trkpt lat="47.29949" lon="-2.18124">
        <ele>3</ele>
        <time>2021-07-21T17:51:06Z</time>
      </trkpt>
      <trkpt lat="47.29824" lon="-2.18308">
        <ele>4</ele>
        <time>2021-07-21T17:51:47Z</time>
      </trkpt>
      <trkpt lat="47.29661" lon="-2.18446">
        <ele>6</ele>
        <time>2021-07-21T17:52:31Z</time>
      </trkpt>
      <trkpt lat="47.29456" lon="-2.18679">
        <ele>6</ele>
        <time>2021-07-21T17:53:32Z</time>
      </trkpt>
      <trkpt lat="47.29236" lon="-2.19134">
        <ele>5</ele>
        <time>2021-07-21T17:55:00Z</time>
      </trkpt>
      <trkpt lat="47.28962" lon="-2.19199">
        <ele>5</ele>
        <time>2021-07-21T17:56:05Z</time>
      </trkpt>
      <trkpt lat="47.2905" lon="-2.19841">
        <ele>4</ele>
        <time>2021-07-21T17:57:49Z</time>
      </trkpt>
      <trkpt lat="47.29025" lon="-2.19921">
        <ele>5</ele>
        <time>2021-07-21T17:58:03Z</time>
      </trkpt>
      <trkpt lat="47.29016" lon="-2.19982">
        <ele>4</ele>
        <time>2021-07-21T17:58:12Z</time>
      </trkpt>
      <trkpt lat="47.29039" lon="-2.20184">
        <ele>3</ele>
        <time>2021-07-21T17:58:45Z</time>
      </trkpt>
      <trkpt lat="47.28942" lon="-2.20199">
        <ele>2</ele>
        <time>2021-07-21T17:59:08Z</time>
      </trkpt>
      <trkpt lat="47.28943" lon="-2.20278">
        <ele>2</ele>
        <time>2021-07-21T17:59:20Z</time>
      </trkpt>
      <trkpt lat="47.28334" lon="-2.20371">
        <ele>3</ele>
        <time>2021-07-21T18:01:43Z</time>
      </trkpt>
      <trkpt lat="47.28213" lon="-2.20393">
        <ele>4</ele>
        <time>2021-07-21T18:02:12Z</time>
      </trkpt>
      <trkpt lat="47.2818" lon="-2.20199">
        <ele>4</ele>
        <time>2021-07-21T18:02:43Z</time>
      </trkpt>
      <trkpt lat="47.27987" lon="-2.20259">
        <ele>3</ele>
        <time>2021-07-21T18:03:29Z</time>
      </trkpt>
      <trkpt lat="47.27779" lon="-2.20297">
        <ele>7</ele>
        <time>2021-07-21T18:04:18Z</time>
      </trkpt>
      <trkpt lat="47.27578" lon="-2.20358">
        <ele>8</ele>
        <time>2021-07-21T18:05:06Z</time>
      </trkpt>
      <trkpt lat="47.27453" lon="-2.20392">
        <ele>6</ele>
        <time>2021-07-21T18:05:36Z</time>
      </trkpt>
      <trkpt lat="47.27315" lon="-2.20443">
        <ele>8</ele>
        <time>2021-07-21T18:06:09Z</time>
      </trkpt>
      <trkpt lat="47.27282" lon="-2.20238">
        <ele>6</ele>
        <time>2021-07-21T18:06:43Z</time>
      </trkpt>
      <trkpt lat="47.27257" lon="-2.20125">
        <ele>4</ele>
        <time>2021-07-21T18:07:01Z</time>
      </trkpt>
      <trkpt lat="47.27252" lon="-2.20067">
        <ele>5</ele>
        <time>2021-07-21T18:07:11Z</time>
      </trkpt>
      <trkpt lat="47.27232" lon="-2.1991">
        <ele>7</ele>
        <time>2021-07-21T18:07:36Z</time>
      </trkpt>
      <trkpt lat="47.27215" lon="-2.199">
        <ele>6</ele>
        <time>2021-07-21T18:07:40Z</time>
      </trkpt>
      <trkpt lat="47.27191" lon="-2.19895">
        <ele>6</ele>
        <time>2021-07-21T18:07:46Z</time>
      </trkpt>
      <trkpt lat="47.27172" lon="-2.19899">
        <ele>6</ele>
        <time>2021-07-21T18:07:50Z</time>
      </trkpt>
      <trkpt lat="47.27152" lon="-2.19916">
        <ele>7</ele>
        <time>2021-07-21T18:07:56Z</time>
      </trkpt>
      <trkpt lat="47.27088" lon="-2.1996">
        <ele>6</ele>
        <time>2021-07-21T18:08:12Z</time>
      </trkpt>
      <trkpt lat="47.27081" lon="-2.19976">
        <ele>6</ele>
        <time>2021-07-21T18:08:15Z</time>
      </trkpt>
      <trkpt lat="47.27096" lon="-2.20202">
        <ele>4</ele>
        <time>2021-07-21T18:08:51Z</time>
      </trkpt>
      <trkpt lat="47.27119" lon="-2.20326">
        <ele>6</ele>
        <time>2021-07-21T18:09:12Z</time>
      </trkpt>
      <trkpt lat="47.27122" lon="-2.20353">
        <ele>6</ele>
        <time>2021-07-21T18:09:16Z</time>
      </trkpt>
      <trkpt lat="47.27113" lon="-2.2037">
        <ele>6</ele>
        <time>2021-07-21T18:09:19Z</time>
      </trkpt>
      <trkpt lat="47.27131" lon="-2.20451">
        <ele>6</ele>
        <time>2021-07-21T18:09:33Z</time>
      </trkpt>
      <trkpt lat="47.27128" lon="-2.20479">
        <ele>6</ele>
        <time>2021-07-21T18:09:37Z</time>
      </trkpt>
      <trkpt lat="47.27136" lon="-2.20519">
        <ele>6</ele>
        <time>2021-07-21T18:09:44Z</time>
      </trkpt>
      <trkpt lat="47.27134" lon="-2.20584">
        <ele>6</ele>
        <time>2021-07-21T18:09:54Z</time>
      </trkpt>
      <trkpt lat="47.27119" lon="-2.20719">
        <ele>5</ele>
        <time>2021-07-21T18:10:16Z</time>
      </trkpt>
      <trkpt lat="47.271" lon="-2.20839">
        <ele>5</ele>
        <time>2021-07-21T18:10:35Z</time>
      </trkpt>
      <trkpt lat="47.27039" lon="-2.21039">
        <ele>7</ele>
        <time>2021-07-21T18:11:10Z</time>
      </trkpt>
      <trkpt lat="47.27003" lon="-2.21171">
        <ele>8</ele>
        <time>2021-07-21T18:11:33Z</time>
      </trkpt>
      <trkpt lat="47.26952" lon="-2.21235">
        <ele>7</ele>
        <time>2021-07-21T18:11:48Z</time>
      </trkpt>
      <trkpt lat="47.26915" lon="-2.21297">
        <ele>8</ele>
        <time>2021-07-21T18:12:01Z</time>
      </trkpt>
      <trkpt lat="47.26887" lon="-2.21416">
        <ele>7</ele>
        <time>2021-07-21T18:12:21Z</time>
      </trkpt>
      <trkpt lat="47.26861" lon="-2.21567">
        <ele>6</ele>
        <time>2021-07-21T18:12:46Z</time>
      </trkpt>
      <trkpt lat="47.26824" lon="-2.21751">
        <ele>9</ele>
        <time>2021-07-21T18:13:17Z</time>
      </trkpt>
      <trkpt lat="47.268" lon="-2.21845">
        <ele>6</ele>
        <time>2021-07-21T18:13:32Z</time>
      </trkpt>
      <trkpt lat="47.2678" lon="-2.21941">
        <ele>5</ele>
        <time>2021-07-21T18:13:48Z</time>
      </trkpt>
      <trkpt lat="47.26726" lon="-2.2208">
        <ele>4</ele>
        <time>2021-07-21T18:14:14Z</time>
      </trkpt>
      <trkpt lat="47.26586" lon="-2.22385">
        <ele>7</ele>
        <time>2021-07-21T18:15:12Z</time>
      </trkpt>
      <trkpt lat="47.26496" lon="-2.22514">
        <ele>5</ele>
        <time>2021-07-21T18:15:41Z</time>
      </trkpt>
      <trkpt lat="47.26505" lon="-2.22578">
        <ele>5</ele>
        <time>2021-07-21T18:15:52Z</time>
      </trkpt>
      <trkpt lat="47.26633" lon="-2.2272">
        <ele>6</ele>
        <time>2021-07-21T18:16:29Z</time>
      </trkpt>
      <trkpt lat="47.26805" lon="-2.22789">
        <ele>6</ele>
        <time>2021-07-21T18:17:11Z</time>
      </trkpt>
      <trkpt lat="47.26939" lon="-2.22823">
        <ele>7</ele>
        <time>2021-07-21T18:17:43Z</time>
      </trkpt>
      <trkpt lat="47.26816" lon="-2.23205">
        <ele>8</ele>
        <time>2021-07-21T18:18:50Z</time>
      </trkpt>
      <trkpt lat="47.26787" lon="-2.23364">
        <ele>13</ele>
        <time>2021-07-21T18:19:16Z</time>
      </trkpt>
      <trkpt lat="47.26877" lon="-2.23643">
        <ele>19</ele>
        <time>2021-07-21T18:20:05Z</time>
      </trkpt>
      <trkpt lat="47.26997" lon="-2.23896">
        <ele>24</ele>
        <time>2021-07-21T18:20:54Z</time>
      </trkpt>
      <trkpt lat="47.27075" lon="-2.24188">
        <ele>21</ele>
        <time>2021-07-21T18:21:43Z</time>
      </trkpt>
      <trkpt lat="47.27116" lon="-2.24176">
        <ele>19</ele>
        <time>2021-07-21T18:21:53Z</time>
      </trkpt>
      <trkpt lat="47.27172" lon="-2.24152">
        <ele>17</ele>
        <time>2021-07-21T18:22:07Z</time>
      </trkpt>
      <trkpt lat="47.27171" lon="-2.2411">
        <ele>17</ele>
        <time>2021-07-21T18:22:13Z</time>
      </trkpt>
      <trkpt lat="47.27229" lon="-2.24045">
        <ele>16</ele>
        <time>2021-07-21T18:22:30Z</time>
      </trkpt>
      <trkpt lat="47.27246" lon="-2.23987">
        <ele>13</ele>
        <time>2021-07-21T18:22:40Z</time>
      </trkpt>
      <trkpt lat="47.27289" lon="-2.23981">
        <ele>14</ele>
        <time>2021-07-21T18:22:50Z</time>
      </trkpt>
      <trkpt lat="47.27341" lon="-2.23968">
        <ele>14</ele>
        <time>2021-07-21T18:23:03Z</time>
      </trkpt>
      <trkpt lat="47.27387" lon="-2.2396">
        <ele>13</ele>
        <time>2021-07-21T18:23:14Z</time>
      </trkpt>
      <trkpt lat="47.27408" lon="-2.23984">
        <ele>14</ele>
        <time>2021-07-21T18:23:20Z</time>
      </trkpt>
      <trkpt lat="47.27426" lon="-2.24041">
        <ele>17</ele>
        <time>2021-07-21T18:23:30Z</time>
      </trkpt>
      <trkpt lat="47.27434" lon="-2.24109">
        <ele>18</ele>
        <time>2021-07-21T18:23:41Z</time>
      </trkpt>
      <trkpt lat="47.27448" lon="-2.24174">
        <ele>18</ele>
        <time>2021-07-21T18:23:51Z</time>
      </trkpt>
      <trkpt lat="47.27465" lon="-2.24223">
        <ele>17</ele>
        <time>2021-07-21T18:24:00Z</time>
      </trkpt>
      <trkpt lat="47.27471" lon="-2.2428">
        <ele>17</ele>
        <time>2021-07-21T18:24:09Z</time>
      </trkpt>
      <trkpt lat="47.27463" lon="-2.24311">
        <ele>16</ele>
        <time>2021-07-21T18:24:15Z</time>
      </trkpt>
      <trkpt lat="47.27447" lon="-2.2433">
        <ele>16</ele>
        <time>2021-07-21T18:24:19Z</time>
      </trkpt>
      <trkpt lat="47.27442" lon="-2.24374">
        <ele>15</ele>
        <time>2021-07-21T18:24:26Z</time>
      </trkpt>
      <trkpt lat="47.27443" lon="-2.24458">
        <ele>15</ele>
        <time>2021-07-21T18:24:40Z</time>
      </trkpt>
      <trkpt lat="47.27439" lon="-2.2454">
        <ele>16</ele>
        <time>2021-07-21T18:24:53Z</time>
      </trkpt>
      <trkpt lat="47.27432" lon="-2.24608">
        <ele>16</ele>
        <time>2021-07-21T18:25:04Z</time>
      </trkpt>
      <trkpt lat="47.27441" lon="-2.24772">
        <ele>17</ele>
        <time>2021-07-21T18:25:30Z</time>
      </trkpt>
      <trkpt lat="47.27427" lon="-2.2481">
        <ele>16</ele>
        <time>2021-07-21T18:25:37Z</time>
      </trkpt>
      <trkpt lat="47.27412" lon="-2.24872">
        <ele>16</ele>
        <time>2021-07-21T18:25:47Z</time>
      </trkpt>
      <trkpt lat="47.27404" lon="-2.24889">
        <ele>16</ele>
        <time>2021-07-21T18:25:50Z</time>
      </trkpt>
      <trkpt lat="47.27347" lon="-2.24966">
        <ele>13</ele>
        <time>2021-07-21T18:26:08Z</time>
      </trkpt>
      <trkpt lat="47.27322" lon="-2.24989">
        <ele>13</ele>
        <time>2021-07-21T18:26:15Z</time>
      </trkpt>
      <trkpt lat="47.27372" lon="-2.2513">
        <ele>13</ele>
        <time>2021-07-21T18:26:40Z</time>
      </trkpt>
      <trkpt lat="47.27444" lon="-2.25303">
        <ele>17</ele>
        <time>2021-07-21T18:27:13Z</time>
      </trkpt>
      <trkpt lat="47.27447" lon="-2.25382">
        <ele>17</ele>
        <time>2021-07-21T18:27:25Z</time>
      </trkpt>
      <trkpt lat="47.2743" lon="-2.25418">
        <ele>18</ele>
        <time>2021-07-21T18:27:32Z</time>
      </trkpt>
      <trkpt lat="47.27455" lon="-2.25446">
        <ele>16</ele>
        <time>2021-07-21T18:27:39Z</time>
      </trkpt>
      <trkpt lat="47.27514" lon="-2.25471">
        <ele>15</ele>
        <time>2021-07-21T18:27:54Z</time>
      </trkpt>
      <trkpt lat="47.27556" lon="-2.25549">
        <ele>15</ele>
        <time>2021-07-21T18:28:10Z</time>
      </trkpt>
      <trkpt lat="47.27569" lon="-2.25656">
        <ele>16</ele>
        <time>2021-07-21T18:28:27Z</time>
      </trkpt>
      <trkpt lat="47.27598" lon="-2.25726">
        <ele>16</ele>
        <time>2021-07-21T18:28:40Z</time>
      </trkpt>
      <trkpt lat="47.27591" lon="-2.25811">
        <ele>15</ele>
        <time>2021-07-21T18:28:53Z</time>
      </trkpt>
      <trkpt lat="47.27632" lon="-2.2588">
        <ele>15</ele>
        <time>2021-07-21T18:29:08Z</time>
      </trkpt>
      <trkpt lat="47.27561" lon="-2.25936">
        <ele>15</ele>
        <time>2021-07-21T18:29:27Z</time>
      </trkpt>
      <trkpt lat="47.27527" lon="-2.25968">
        <ele>17</ele>
        <time>2021-07-21T18:29:36Z</time>
      </trkpt>
      <trkpt lat="47.27488" lon="-2.26018">
        <ele>18</ele>
        <time>2021-07-21T18:29:48Z</time>
      </trkpt>
      <trkpt lat="47.27456" lon="-2.26072">
        <ele>19</ele>
        <time>2021-07-21T18:30:00Z</time>
      </trkpt>
      <trkpt lat="47.274" lon="-2.26106">
        <ele>20</ele>
        <time>2021-07-21T18:30:14Z</time>
      </trkpt>
      <trkpt lat="47.27339" lon="-2.26124">
        <ele>21</ele>
        <time>2021-07-21T18:30:28Z</time>
      </trkpt>
      <trkpt lat="47.27275" lon="-2.2615">
        <ele>21</ele>
        <time>2021-07-21T18:30:44Z</time>
      </trkpt>
      <trkpt lat="47.27209" lon="-2.26196">
        <ele>21</ele>
        <time>2021-07-21T18:31:01Z</time>
      </trkpt>
      <trkpt lat="47.27127" lon="-2.26282">
        <ele>22</ele>
        <time>2021-07-21T18:31:24Z</time>
      </trkpt>
      <trkpt lat="47.2696" lon="-2.26509">
        <ele>26</ele>
        <time>2021-07-21T18:32:17Z</time>
      </trkpt>
      <trkpt lat="47.26876" lon="-2.26543">
        <ele>25</ele>
        <time>2021-07-21T18:32:38Z</time>
      </trkpt>
      <trkpt lat="47.26906" lon="-2.26673">
        <ele>24</ele>
        <time>2021-07-21T18:32:59Z</time>
      </trkpt>
      <trkpt lat="47.26947" lon="-2.2679">
        <ele>23</ele>
        <time>2021-07-21T18:33:20Z</time>
      </trkpt>
      <trkpt lat="47.26961" lon="-2.26869">
        <ele>22</ele>
        <time>2021-07-21T18:33:33Z</time>
      </trkpt>
      <trkpt lat="47.26956" lon="-2.26976">
        <ele>24</ele>
        <time>2021-07-21T18:33:50Z</time>
      </trkpt>
      <trkpt lat="47.2702" lon="-2.27104">
        <ele>25</ele>
        <time>2021-07-21T18:34:15Z</time>
      </trkpt>
      <trkpt lat="47.271" lon="-2.27255">
        <ele>25</ele>
        <time>2021-07-21T18:34:46Z</time>
      </trkpt>
      <trkpt lat="47.27133" lon="-2.274">
        <ele>29</ele>
        <time>2021-07-21T18:35:10Z</time>
      </trkpt>
      <trkpt lat="47.27145" lon="-2.27553">
        <ele>31</ele>
        <time>2021-07-21T18:35:34Z</time>
      </trkpt>
      <trkpt lat="47.27088" lon="-2.27635">
        <ele>32</ele>
        <time>2021-07-21T18:35:53Z</time>
      </trkpt>
      <trkpt lat="47.27031" lon="-2.27699">
        <ele>33</ele>
        <time>2021-07-21T18:36:10Z</time>
      </trkpt>
      <trkpt lat="47.27018" lon="-2.27727">
        <ele>34</ele>
        <time>2021-07-21T18:36:15Z</time>
      </trkpt>
      <trkpt lat="47.27112" lon="-2.27765">
        <ele>33</ele>
        <time>2021-07-21T18:36:38Z</time>
      </trkpt>
      <trkpt lat="47.27114" lon="-2.27806">
        <ele>34</ele>
        <time>2021-07-21T18:36:44Z</time>
      </trkpt>
      <trkpt lat="47.27095" lon="-2.27872">
        <ele>36</ele>
        <time>2021-07-21T18:36:56Z</time>
      </trkpt>
      <trkpt lat="47.2707" lon="-2.27915">
        <ele>36</ele>
        <time>2021-07-21T18:37:05Z</time>
      </trkpt>
      <trkpt lat="47.27084" lon="-2.27982">
        <ele>36</ele>
        <time>2021-07-21T18:37:16Z</time>
      </trkpt>
      <trkpt lat="47.27117" lon="-2.28076">
        <ele>35</ele>
        <time>2021-07-21T18:37:33Z</time>
      </trkpt>
      <trkpt lat="47.27124" lon="-2.28168">
        <ele>33</ele>
        <time>2021-07-21T18:37:47Z</time>
      </trkpt>
      <trkpt lat="47.27126" lon="-2.28278">
        <ele>31</ele>
        <time>2021-07-21T18:38:05Z</time>
      </trkpt>
      <trkpt lat="47.27153" lon="-2.28398">
        <ele>32</ele>
        <time>2021-07-21T18:38:25Z</time>
      </trkpt>
      <trkpt lat="47.27181" lon="-2.28594">
        <ele>34</ele>
        <time>2021-07-21T18:38:56Z</time>
      </trkpt>
      <trkpt lat="47.27181" lon="-2.2876">
        <ele>36</ele>
        <time>2021-07-21T18:39:23Z</time>
      </trkpt>
      <trkpt lat="47.27193" lon="-2.29105">
        <ele>28</ele>
        <time>2021-07-21T18:40:18Z</time>
      </trkpt>
      <trkpt lat="47.27174" lon="-2.29125">
        <ele>28</ele>
        <time>2021-07-21T18:40:23Z</time>
      </trkpt>
      <trkpt lat="47.27143" lon="-2.29181">
        <ele>30</ele>
        <time>2021-07-21T18:40:34Z</time>
      </trkpt>
      <trkpt lat="47.27164" lon="-2.2927">
        <ele>29</ele>
        <time>2021-07-21T18:40:49Z</time>
      </trkpt>
      <trkpt lat="47.27166" lon="-2.29342">
        <ele>29</ele>
        <time>2021-07-21T18:41:01Z</time>
      </trkpt>
      <trkpt lat="47.27233" lon="-2.29498">
        <ele>32</ele>
        <time>2021-07-21T18:41:30Z</time>
      </trkpt>
      <trkpt lat="47.27237" lon="-2.29569">
        <ele>31</ele>
        <time>2021-07-21T18:41:41Z</time>
      </trkpt>
      <trkpt lat="47.27179" lon="-2.2962">
        <ele>31</ele>
        <time>2021-07-21T18:41:57Z</time>
      </trkpt>
      <trkpt lat="47.27133" lon="-2.2963">
        <ele>32</ele>
        <time>2021-07-21T18:42:08Z</time>
      </trkpt>
      <trkpt lat="47.27114" lon="-2.29694">
        <ele>33</ele>
        <time>2021-07-21T18:42:19Z</time>
      </trkpt>
      <trkpt lat="47.27108" lon="-2.29788">
        <ele>32</ele>
        <time>2021-07-21T18:42:34Z</time>
      </trkpt>
      <trkpt lat="47.27089" lon="-2.29873">
        <ele>32</ele>
        <time>2021-07-21T18:42:48Z</time>
      </trkpt>
      <trkpt lat="47.27025" lon="-2.30003">
        <ele>29</ele>
        <time>2021-07-21T18:43:14Z</time>
      </trkpt>
      <trkpt lat="47.27001" lon="-2.30061">
        <ele>30</ele>
        <time>2021-07-21T18:43:24Z</time>
      </trkpt>
      <trkpt lat="47.2693" lon="-2.30112">
        <ele>30</ele>
        <time>2021-07-21T18:43:43Z</time>
      </trkpt>
      <trkpt lat="47.26868" lon="-2.30181">
        <ele>30</ele>
        <time>2021-07-21T18:44:01Z</time>
      </trkpt>
      <trkpt lat="47.26902" lon="-2.3035">
        <ele>29</ele>
        <time>2021-07-21T18:44:29Z</time>
      </trkpt>
      <trkpt lat="47.26918" lon="-2.30447">
        <ele>29</ele>
        <time>2021-07-21T18:44:45Z</time>
      </trkpt>
      <trkpt lat="47.26913" lon="-2.30539">
        <ele>28</ele>
        <time>2021-07-21T18:44:59Z</time>
      </trkpt>
      <trkpt lat="47.26921" lon="-2.30618">
        <ele>28</ele>
        <time>2021-07-21T18:45:12Z</time>
      </trkpt>
      <trkpt lat="47.26897" lon="-2.30653">
        <ele>28</ele>
        <time>2021-07-21T18:45:20Z</time>
      </trkpt>
      <trkpt lat="47.26852" lon="-2.30733">
        <ele>28</ele>
        <time>2021-07-21T18:45:36Z</time>
      </trkpt>
      <trkpt lat="47.26826" lon="-2.30827">
        <ele>26</ele>
        <time>2021-07-21T18:45:52Z</time>
      </trkpt>
      <trkpt lat="47.26842" lon="-2.31035">
        <ele>28</ele>
        <time>2021-07-21T18:46:26Z</time>
      </trkpt>
      <trkpt lat="47.26837" lon="-2.31317">
        <ele>28</ele>
        <time>2021-07-21T18:47:10Z</time>
      </trkpt>
      <trkpt lat="47.26856" lon="-2.31505">
        <ele>25</ele>
        <time>2021-07-21T18:47:40Z</time>
      </trkpt>
      <trkpt lat="47.26925" lon="-2.3162">
        <ele>22</ele>
        <time>2021-07-21T18:48:05Z</time>
      </trkpt>
      <trkpt lat="47.27091" lon="-2.31764">
        <ele>14</ele>
        <time>2021-07-21T18:48:50Z</time>
      </trkpt>
      <trkpt lat="47.27209" lon="-2.31894">
        <ele>10</ele>
        <time>2021-07-21T18:49:24Z</time>
      </trkpt>
      <trkpt lat="47.27361" lon="-2.32003">
        <ele>6</ele>
        <time>2021-07-21T18:50:04Z</time>
      </trkpt>
      <trkpt lat="47.27547" lon="-2.32205">
        <ele>15</ele>
        <time>2021-07-21T18:50:58Z</time>
      </trkpt>
      <trkpt lat="47.27601" lon="-2.32327">
        <ele>18</ele>
        <time>2021-07-21T18:51:21Z</time>
      </trkpt>
      <trkpt lat="47.27542" lon="-2.32457">
        <ele>17</ele>
        <time>2021-07-21T18:51:45Z</time>
      </trkpt>
      <trkpt lat="47.27542" lon="-2.3258">
        <ele>11</ele>
        <time>2021-07-21T18:52:05Z</time>
      </trkpt>
      <trkpt lat="47.27464" lon="-2.32724">
        <ele>14</ele>
        <time>2021-07-21T18:52:34Z</time>
      </trkpt>
      <trkpt lat="47.27316" lon="-2.33098">
        <ele>20</ele>
        <time>2021-07-21T18:53:43Z</time>
      </trkpt>
      <trkpt lat="47.27308" lon="-2.33131">
        <ele>21</ele>
        <time>2021-07-21T18:53:48Z</time>
      </trkpt>
      <trkpt lat="47.27415" lon="-2.33244">
        <ele>26</ele>
        <time>2021-07-21T18:54:19Z</time>
      </trkpt>
      <trkpt lat="47.27401" lon="-2.33295">
        <ele>26</ele>
        <time>2021-07-21T18:54:28Z</time>
      </trkpt>
      <trkpt lat="47.2741" lon="-2.33374">
        <ele>26</ele>
        <time>2021-07-21T18:54:40Z</time>
      </trkpt>
      <trkpt lat="47.27434" lon="-2.33432">
        <ele>26</ele>
        <time>2021-07-21T18:54:51Z</time>
      </trkpt>
      <trkpt lat="47.27434" lon="-2.33488">
        <ele>26</ele>
        <time>2021-07-21T18:55:00Z</time>
      </trkpt>
      <trkpt lat="47.27408" lon="-2.33529">
        <ele>26</ele>
        <time>2021-07-21T18:55:09Z</time>
      </trkpt>
      <trkpt lat="47.27365" lon="-2.33585">
        <ele>25</ele>
        <time>2021-07-21T18:55:22Z</time>
      </trkpt>
      <trkpt lat="47.27328" lon="-2.33639">
        <ele>26</ele>
        <time>2021-07-21T18:55:35Z</time>
      </trkpt>
      <trkpt lat="47.27311" lon="-2.33652">
        <ele>26</ele>
        <time>2021-07-21T18:55:39Z</time>
      </trkpt>
      <trkpt lat="47.27372" lon="-2.33866">
        <ele>26</ele>
        <time>2021-07-21T18:56:16Z</time>
      </trkpt>
      <trkpt lat="47.27391" lon="-2.34024">
        <ele>25</ele>
        <time>2021-07-21T18:56:41Z</time>
      </trkpt>
      <trkpt lat="47.27403" lon="-2.34193">
        <ele>23</ele>
        <time>2021-07-21T18:57:08Z</time>
      </trkpt>
      <trkpt lat="47.27413" lon="-2.3429">
        <ele>22</ele>
        <time>2021-07-21T18:57:24Z</time>
      </trkpt>
      <trkpt lat="47.27422" lon="-2.34428">
        <ele>24</ele>
        <time>2021-07-21T18:57:46Z</time>
      </trkpt>
      <trkpt lat="47.27437" lon="-2.34565">
        <ele>26</ele>
        <time>2021-07-21T18:58:08Z</time>
      </trkpt>
      <trkpt lat="47.27458" lon="-2.34685">
        <ele>25</ele>
        <time>2021-07-21T18:58:27Z</time>
      </trkpt>
      <trkpt lat="47.27538" lon="-2.3468">
        <ele>25</ele>
        <time>2021-07-21T18:58:46Z</time>
      </trkpt>
      <trkpt lat="47.27605" lon="-2.34629">
        <ele>25</ele>
        <time>2021-07-21T18:59:04Z</time>
      </trkpt>
      <trkpt lat="47.27675" lon="-2.34555">
        <ele>24</ele>
        <time>2021-07-21T18:59:24Z</time>
      </trkpt>
      <trkpt lat="47.27688" lon="-2.3465">
        <ele>23</ele>
        <time>2021-07-21T18:59:39Z</time>
      </trkpt>
      <trkpt lat="47.27706" lon="-2.34724">
        <ele>23</ele>
        <time>2021-07-21T18:59:52Z</time>
      </trkpt>
      <trkpt lat="47.27784" lon="-2.34866">
        <ele>21</ele>
        <time>2021-07-21T19:00:20Z</time>
      </trkpt>
      <trkpt lat="47.27763" lon="-2.35045">
        <ele>19</ele>
        <time>2021-07-21T19:00:49Z</time>
      </trkpt>
      <trkpt lat="47.27768" lon="-2.35203">
        <ele>16</ele>
        <time>2021-07-21T19:01:14Z</time>
      </trkpt>
      <trkpt lat="47.27792" lon="-2.35321">
        <ele>16</ele>
        <time>2021-07-21T19:01:34Z</time>
      </trkpt>
      <trkpt lat="47.27827" lon="-2.35367">
        <ele>16</ele>
        <time>2021-07-21T19:01:45Z</time>
      </trkpt>
      <trkpt lat="47.27903" lon="-2.35402">
        <ele>16</ele>
        <time>2021-07-21T19:02:03Z</time>
      </trkpt>
      <trkpt lat="47.27953" lon="-2.35448">
        <ele>18</ele>
        <time>2021-07-21T19:02:17Z</time>
      </trkpt>
      <trkpt lat="47.28009" lon="-2.35555">
        <ele>22</ele>
        <time>2021-07-21T19:02:39Z</time>
      </trkpt>
      <trkpt lat="47.2777" lon="-2.35629">
        <ele>14</ele>
        <time>2021-07-21T19:03:36Z</time>
      </trkpt>
      <trkpt lat="47.27727" lon="-2.35686">
        <ele>13</ele>
        <time>2021-07-21T19:03:49Z</time>
      </trkpt>
      <trkpt lat="47.27675" lon="-2.35744">
        <ele>11</ele>
        <time>2021-07-21T19:04:04Z</time>
      </trkpt>
      <trkpt lat="47.27633" lon="-2.35795">
        <ele>10</ele>
        <time>2021-07-21T19:04:17Z</time>
      </trkpt>
      <trkpt lat="47.27585" lon="-2.35859">
        <ele>9</ele>
        <time>2021-07-21T19:04:32Z</time>
      </trkpt>
      <trkpt lat="47.27531" lon="-2.35974">
        <ele>11</ele>
        <time>2021-07-21T19:04:54Z</time>
      </trkpt>
      <trkpt lat="47.27521" lon="-2.36015">
        <ele>11</ele>
        <time>2021-07-21T19:05:01Z</time>
      </trkpt>
      <trkpt lat="47.27512" lon="-2.36035">
        <ele>10</ele>
        <time>2021-07-21T19:05:05Z</time>
      </trkpt>
      <trkpt lat="47.27487" lon="-2.36044">
        <ele>9</ele>
        <time>2021-07-21T19:05:11Z</time>
      </trkpt>
      <trkpt lat="47.27442" lon="-2.36047">
        <ele>8</ele>
        <time>2021-07-21T19:05:22Z</time>
      </trkpt>
      <trkpt lat="47.27452" lon="-2.36071">
        <ele>6</ele>
        <time>2021-07-21T19:05:26Z</time>
      </trkpt>
      <trkpt lat="47.27463" lon="-2.36083">
        <ele>6</ele>
        <time>2021-07-21T19:05:29Z</time>
      </trkpt>
      <trkpt lat="47.27466" lon="-2.36105">
        <ele>6</ele>
        <time>2021-07-21T19:05:33Z</time>
      </trkpt>
      <trkpt lat="47.27533" lon="-2.36281">
        <ele>7</ele>
        <time>2021-07-21T19:06:05Z</time>
      </trkpt>
      <trkpt lat="47.2772" lon="-2.36819">
        <ele>5</ele>
        <time>2021-07-21T19:07:40Z</time>
      </trkpt>
      <trkpt lat="47.27829" lon="-2.37194">
        <ele>10</ele>
        <time>2021-07-21T19:08:45Z</time>
      </trkpt>
      <trkpt lat="47.27971" lon="-2.37795">
        <ele>9</ele>
        <time>2021-07-21T19:10:26Z</time>
      </trkpt>
    </trkseg>
  </trk>
</gpx>